createdAt,value
2019-05-20T00:01:29.637Z,44
2019-05-20T00:11:29.686Z,44
2019-05-20T00:21:27.163Z,45
2019-05-20T00:31:33.645Z,48
2019-05-20T00:41:27.308Z,46
2019-05-20T00:51:28.010Z,45
2019-05-20T01:01:26.828Z,45
2019-05-20T01:11:27.841Z,48
2019-05-20T01:21:28.342Z,48
2019-05-20T01:31:28.374Z,46
2019-05-20T01:41:29.467Z,45
2019-05-20T01:51:28.346Z,48
2019-05-20T02:01:29.260Z,47
2019-05-20T02:11:34.492Z,46
2019-05-20T02:21:28.853Z,45
2019-05-20T02:31:28.335Z,49
2019-05-20T02:41:28.117Z,47
2019-05-20T02:51:28.922Z,46
2019-05-20T03:01:26.559Z,46
2019-05-20T03:11:28.035Z,46
2019-05-20T03:21:27.638Z,48
2019-05-20T03:31:28.591Z,49
2019-05-20T03:41:29.914Z,45
2019-05-20T03:51:26.515Z,46
2019-05-20T04:01:28.273Z,47
2019-05-20T04:11:32.412Z,46
2019-05-20T04:21:28.144Z,49
2019-05-20T04:31:27.128Z,47
2019-05-20T04:41:27.842Z,49
2019-05-20T04:51:29.346Z,47
2019-05-20T05:01:27.227Z,49
2019-05-20T05:11:28.452Z,48
2019-05-20T05:21:27.619Z,50
2019-05-20T05:31:34.849Z,48
2019-05-20T05:41:30.006Z,46
2019-05-20T05:51:28.219Z,49
2019-05-20T06:01:28.730Z,48
2019-05-20T06:11:28.439Z,48
2019-05-20T06:21:27.288Z,50
2019-05-20T06:31:27.479Z,48
2019-05-20T06:41:30.817Z,47
2019-05-20T06:51:32.378Z,49
2019-05-20T07:01:27.093Z,47
2019-05-20T07:11:27.497Z,48
2019-05-20T07:21:29.178Z,45
2019-05-20T07:31:27.058Z,45
2019-05-20T07:41:26.637Z,47
2019-05-20T07:51:28.109Z,43
2019-05-20T08:01:27.073Z,45
2019-05-20T08:11:27.428Z,43
2019-05-20T08:21:28.597Z,41
2019-05-20T08:31:29.624Z,40
2019-05-20T08:41:27.984Z,44
2019-05-20T08:51:28.018Z,41
2019-05-20T09:01:27.078Z,43
2019-05-20T09:11:26.854Z,42
2019-05-20T09:21:26.946Z,44
2019-05-20T09:31:27.060Z,43
2019-05-20T09:41:27.928Z,39
2019-05-20T09:51:26.750Z,39
2019-05-20T10:01:28.219Z,40
2019-05-20T10:11:27.526Z,40
2019-05-20T10:21:28.030Z,40
2019-05-20T10:31:27.129Z,42
2019-05-20T10:41:31.596Z,39
2019-05-20T10:51:27.464Z,39
2019-05-20T11:01:27.370Z,42
2019-05-20T11:11:32.768Z,42
2019-05-20T11:21:26.974Z,42
2019-05-20T11:31:27.292Z,39
2019-05-20T11:41:55.553Z,39
2019-05-20T11:51:27.791Z,39
2019-05-20T12:01:29.473Z,38
2019-05-20T12:11:27.499Z,42
2019-05-20T12:21:27.558Z,39
2019-05-20T12:31:27.608Z,41
2019-05-20T12:41:28.074Z,39
2019-05-20T12:51:27.513Z,38
2019-05-20T13:01:27.759Z,38
2019-05-20T13:11:30.017Z,37
2019-05-20T13:21:27.274Z,39
2019-05-20T13:31:27.691Z,39
2019-05-20T13:41:29.009Z,37
2019-05-20T13:51:27.656Z,39
2019-05-20T14:01:27.458Z,38
2019-05-20T14:11:36.600Z,37
2019-05-20T14:21:27.574Z,38
2019-05-20T14:31:27.700Z,38
2019-05-20T14:41:27.902Z,37
2019-05-20T14:51:27.868Z,37
2019-05-20T15:01:29.416Z,36
2019-05-20T15:11:40.371Z,37
2019-05-20T15:21:31.411Z,37
2019-05-20T15:31:27.464Z,38
2019-05-20T15:41:28.365Z,37
2019-05-20T15:51:28.718Z,37
2019-05-20T16:01:27.896Z,38
2019-05-20T16:11:28.463Z,36
2019-05-20T16:21:29.358Z,36
2019-05-20T16:31:27.652Z,38
2019-05-20T16:41:28.015Z,37
2019-05-20T16:51:26.809Z,37
2019-05-20T17:01:27.915Z,38
2019-05-20T17:11:27.387Z,37
2019-05-20T17:21:29.920Z,36
2019-05-20T17:31:32.374Z,36
2019-05-20T17:41:32.880Z,38
2019-05-20T17:51:30.832Z,36
2019-05-20T18:01:27.687Z,36
2019-05-20T18:11:28.117Z,38
2019-05-20T18:21:27.124Z,39
2019-05-20T18:31:34.704Z,39
2019-05-20T18:41:27.361Z,39
2019-05-20T18:51:28.368Z,38
2019-05-20T19:01:27.519Z,37
2019-05-20T19:11:28.327Z,40
2019-05-20T19:21:28.084Z,39
2019-05-20T19:31:26.806Z,38
2019-05-20T19:41:29.030Z,38
2019-05-20T19:51:27.073Z,38
2019-05-20T20:01:27.713Z,39
2019-05-20T20:11:28.824Z,38
2019-05-20T20:21:27.562Z,40
2019-05-20T20:31:27.596Z,38
2019-05-20T20:41:27.729Z,40
2019-05-20T20:51:28.032Z,39
2019-05-20T21:01:28.415Z,40
2019-05-20T21:11:27.735Z,39
2019-05-20T21:21:27.385Z,40
2019-05-20T21:31:28.685Z,39
2019-05-20T21:41:27.329Z,40
2019-05-20T21:51:27.685Z,40
2019-05-20T22:01:29.079Z,38
2019-05-20T22:11:28.792Z,41
2019-05-20T22:21:28.258Z,42
2019-05-20T22:31:27.945Z,41
2019-05-20T22:41:30.022Z,40
2019-05-20T22:51:29.002Z,42
2019-05-20T23:01:27.939Z,42
2019-05-20T23:11:30.805Z,39
2019-05-20T23:22:40.545Z,41
2019-05-20T23:31:27.247Z,40
2019-05-20T23:41:28.623Z,40
2019-05-20T23:51:28.562Z,42
